sensor_id;sensor_type;location;lat;lon;timestamp;temperature;humidity
64937;SHT30;51452;47.698;19.050;2023-02-28T00:00:42;1.77;52.45
64937;SHT30;51452;47.698;19.050;2023-02-28T00:03:08;1.83;53.04
64937;SHT30;51452;47.698;19.050;2023-02-28T00:05:33;1.86;52.50
64937;SHT30;51452;47.698;19.050;2023-02-28T00:07:59;1.92;53.41
64937;SHT30;51452;47.698;19.050;2023-02-28T00:10:28;1.96;54.31
64937;SHT30;51452;47.698;19.050;2023-02-28T00:12:55;1.93;51.57
64937;SHT30;51452;47.698;19.050;2023-02-28T00:15:22;1.92;52.64
64937;SHT30;51452;47.698;19.050;2023-02-28T00:17:48;1.90;50.88
64937;SHT30;51452;47.698;19.050;2023-02-28T00:20:14;1.90;51.12
64937;SHT30;51452;47.698;19.050;2023-02-28T00:22:43;1.90;51.46
64937;SHT30;51452;47.698;19.050;2023-02-28T00:25:11;1.89;51.33
64937;SHT30;51452;47.698;19.050;2023-02-28T00:27:39;1.95;50.64
64937;SHT30;51452;47.698;19.050;2023-02-28T00:30:07;1.97;50.70
64937;SHT30;51452;47.698;19.050;2023-02-28T00:32:33;2.10;51.06
64937;SHT30;51452;47.698;19.050;2023-02-28T00:34:59;2.11;50.17
64937;SHT30;51452;47.698;19.050;2023-02-28T00:37:25;2.00;50.70
64937;SHT30;51452;47.698;19.050;2023-02-28T00:39:50;2.04;50.53
64937;SHT30;51452;47.698;19.050;2023-02-28T00:42:16;2.02;50.81
64937;SHT30;51452;47.698;19.050;2023-02-28T00:44:41;2.03;50.29
64937;SHT30;51452;47.698;19.050;2023-02-28T00:47:07;2.04;50.51
64937;SHT30;51452;47.698;19.050;2023-02-28T00:49:32;1.92;50.39
64937;SHT30;51452;47.698;19.050;2023-02-28T00:51:58;1.90;50.68
64937;SHT30;51452;47.698;19.050;2023-02-28T00:54:24;2.00;50.31
64937;SHT30;51452;47.698;19.050;2023-02-28T00:56:50;1.95;50.63
64937;SHT30;51452;47.698;19.050;2023-02-28T00:59:16;1.86;50.52
64937;SHT30;51452;47.698;19.050;2023-02-28T01:01:46;1.99;50.75
64937;SHT30;51452;47.698;19.050;2023-02-28T01:04:11;1.97;51.66
64937;SHT30;51452;47.698;19.050;2023-02-28T01:06:37;2.03;51.79
64937;SHT30;51452;47.698;19.050;2023-02-28T01:09:05;2.06;51.19
64937;SHT30;51452;47.698;19.050;2023-02-28T01:11:31;2.04;52.31
64937;SHT30;51452;47.698;19.050;2023-02-28T01:13:57;2.06;52.37
64937;SHT30;51452;47.698;19.050;2023-02-28T01:16:24;2.16;51.57
64937;SHT30;51452;47.698;19.050;2023-02-28T01:18:49;2.09;50.81
64937;SHT30;51452;47.698;19.050;2023-02-28T01:21:16;2.14;51.57
64937;SHT30;51452;47.698;19.050;2023-02-28T01:23:42;2.16;52.55
64937;SHT30;51452;47.698;19.050;2023-02-28T01:26:11;2.16;52.21
64937;SHT30;51452;47.698;19.050;2023-02-28T01:28:37;2.23;52.62
64937;SHT30;51452;47.698;19.050;2023-02-28T01:31:02;2.23;51.57
64937;SHT30;51452;47.698;19.050;2023-02-28T01:33:28;2.26;51.14
64937;SHT30;51452;47.698;19.050;2023-02-28T01:36:00;2.26;50.76
64937;SHT30;51452;47.698;19.050;2023-02-28T01:38:25;2.26;50.93
64937;SHT30;51452;47.698;19.050;2023-02-28T01:40:51;2.20;49.22
64937;SHT30;51452;47.698;19.050;2023-02-28T01:43:25;2.26;49.51
64937;SHT30;51452;47.698;19.050;2023-02-28T01:45:53;2.20;49.49
64937;SHT30;51452;47.698;19.050;2023-02-28T01:48:21;2.16;49.49
64937;SHT30;51452;47.698;19.050;2023-02-28T01:50:49;2.07;49.23
64937;SHT30;51452;47.698;19.050;2023-02-28T01:53:19;2.13;49.19
64937;SHT30;51452;47.698;19.050;2023-02-28T01:55:49;2.26;50.03
64937;SHT30;51452;47.698;19.050;2023-02-28T01:58:17;2.23;50.85
64937;SHT30;51452;47.698;19.050;2023-02-28T02:00:43;2.18;49.15
64937;SHT30;51452;47.698;19.050;2023-02-28T02:03:10;2.23;49.54
64937;SHT30;51452;47.698;19.050;2023-02-28T02:05:39;2.18;49.00
64937;SHT30;51452;47.698;19.050;2023-02-28T02:08:08;2.10;49.10
64937;SHT30;51452;47.698;19.050;2023-02-28T02:11:00;2.10;49.61
64937;SHT30;51452;47.698;19.050;2023-02-28T02:16:27;2.16;49.23
64937;SHT30;51452;47.698;19.050;2023-02-28T02:33:03;1.86;49.86
64937;SHT30;51452;47.698;19.050;2023-02-28T02:35:43;1.77;50.08
64937;SHT30;51452;47.698;19.050;2023-02-28T02:46:34;1.85;49.60
64937;SHT30;51452;47.698;19.050;2023-02-28T02:49:03;1.86;50.19
64937;SHT30;51452;47.698;19.050;2023-02-28T02:51:32;1.86;49.37
64937;SHT30;51452;47.698;19.050;2023-02-28T02:54:11;1.89;49.46
64937;SHT30;51452;47.698;19.050;2023-02-28T02:56:42;1.86;49.59
64937;SHT30;51452;47.698;19.050;2023-02-28T02:59:11;1.87;49.12
64937;SHT30;51452;47.698;19.050;2023-02-28T03:01:39;1.87;49.44
64937;SHT30;51452;47.698;19.050;2023-02-28T03:04:16;1.89;49.81
64937;SHT30;51452;47.698;19.050;2023-02-28T03:06:42;1.93;49.47
64937;SHT30;51452;47.698;19.050;2023-02-28T03:09:07;2.00;49.98
64937;SHT30;51452;47.698;19.050;2023-02-28T03:11:35;2.02;49.72
64937;SHT30;51452;47.698;19.050;2023-02-28T03:19:29;2.00;49.31
64937;SHT30;51452;47.698;19.050;2023-02-28T03:24:45;1.75;50.01
64937;SHT30;51452;47.698;19.050;2023-02-28T03:27:20;1.83;49.98
64937;SHT30;51452;47.698;19.050;2023-02-28T03:29:52;1.73;50.31
64937;SHT30;51452;47.698;19.050;2023-02-28T03:35:28;1.75;50.50
64937;SHT30;51452;47.698;19.050;2023-02-28T03:40:51;1.66;50.19
64937;SHT30;51452;47.698;19.050;2023-02-28T03:43:29;1.66;50.40
64937;SHT30;51452;47.698;19.050;2023-02-28T03:45:58;1.66;50.86
64937;SHT30;51452;47.698;19.050;2023-02-28T03:48:33;1.60;50.57
64937;SHT30;51452;47.698;19.050;2023-02-28T03:51:01;1.54;50.88
64937;SHT30;51452;47.698;19.050;2023-02-28T03:53:38;1.58;50.73
64937;SHT30;51452;47.698;19.050;2023-02-28T03:56:17;1.52;51.07
64937;SHT30;51452;47.698;19.050;2023-02-28T03:58:48;1.46;51.26
64937;SHT30;51452;47.698;19.050;2023-02-28T04:01:30;1.42;50.96
64937;SHT30;51452;47.698;19.050;2023-02-28T04:03:57;1.44;51.01
64937;SHT30;51452;47.698;19.050;2023-02-28T04:06:23;1.48;51.32
64937;SHT30;51452;47.698;19.050;2023-02-28T04:08:49;1.51;51.23
64937;SHT30;51452;47.698;19.050;2023-02-28T04:13:43;1.51;51.11
64937;SHT30;51452;47.698;19.050;2023-02-28T04:16:08;1.56;50.98
64937;SHT30;51452;47.698;19.050;2023-02-28T04:18:38;1.59;50.91
64937;SHT30;51452;47.698;19.050;2023-02-28T04:21:05;1.54;51.19
64937;SHT30;51452;47.698;19.050;2023-02-28T04:23:30;1.49;50.81
64937;SHT30;51452;47.698;19.050;2023-02-28T04:25:56;1.54;50.75
64937;SHT30;51452;47.698;19.050;2023-02-28T04:28:21;1.58;50.85
64937;SHT30;51452;47.698;19.050;2023-02-28T04:30:47;1.59;50.71
64937;SHT30;51452;47.698;19.050;2023-02-28T04:33:12;1.58;50.43
64937;SHT30;51452;47.698;19.050;2023-02-28T04:35:38;1.54;50.95
64937;SHT30;51452;47.698;19.050;2023-02-28T04:38:04;1.56;50.97
64937;SHT30;51452;47.698;19.050;2023-02-28T04:40:29;1.55;51.08
64937;SHT30;51452;47.698;19.050;2023-02-28T04:42:54;1.56;51.03
64937;SHT30;51452;47.698;19.050;2023-02-28T04:45:20;1.60;50.92
64937;SHT30;51452;47.698;19.050;2023-02-28T04:47:45;1.60;51.23
64937;SHT30;51452;47.698;19.050;2023-02-28T04:50:11;1.65;50.77
64937;SHT30;51452;47.698;19.050;2023-02-28T04:52:36;1.62;50.84
64937;SHT30;51452;47.698;19.050;2023-02-28T04:55:02;1.55;51.18
64937;SHT30;51452;47.698;19.050;2023-02-28T04:57:27;1.55;51.38
64937;SHT30;51452;47.698;19.050;2023-02-28T04:59:53;1.49;51.30
64937;SHT30;51452;47.698;19.050;2023-02-28T05:02:18;1.51;51.20
64937;SHT30;51452;47.698;19.050;2023-02-28T05:04:45;1.56;51.27
64937;SHT30;51452;47.698;19.050;2023-02-28T05:07:10;1.56;51.36
64937;SHT30;51452;47.698;19.050;2023-02-28T05:09:36;1.58;51.01
64937;SHT30;51452;47.698;19.050;2023-02-28T05:12:01;1.54;51.33
64937;SHT30;51452;47.698;19.050;2023-02-28T05:14:27;1.56;51.06
64937;SHT30;51452;47.698;19.050;2023-02-28T05:16:52;1.56;51.34
64937;SHT30;51452;47.698;19.050;2023-02-28T05:19:17;1.60;51.11
64937;SHT30;51452;47.698;19.050;2023-02-28T05:21:52;1.70;50.68
64937;SHT30;51452;47.698;19.050;2023-02-28T05:24:17;1.59;51.00
64937;SHT30;51452;47.698;19.050;2023-02-28T05:26:48;1.60;50.91
64937;SHT30;51452;47.698;19.050;2023-02-28T05:29:14;1.69;50.60
64937;SHT30;51452;47.698;19.050;2023-02-28T05:31:39;1.86;50.98
64937;SHT30;51452;47.698;19.050;2023-02-28T05:34:04;1.97;50.50
64937;SHT30;51452;47.698;19.050;2023-02-28T05:36:30;1.99;50.04
64937;SHT30;51452;47.698;19.050;2023-02-28T05:38:56;2.03;50.32
64937;SHT30;51452;47.698;19.050;2023-02-28T05:41:21;1.99;49.98
64937;SHT30;51452;47.698;19.050;2023-02-28T05:43:48;2.09;49.85
64937;SHT30;51452;47.698;19.050;2023-02-28T05:46:13;1.99;49.85
64937;SHT30;51452;47.698;19.050;2023-02-28T05:48:41;1.93;50.09
64937;SHT30;51452;47.698;19.050;2023-02-28T05:51:08;1.86;49.90
64937;SHT30;51452;47.698;19.050;2023-02-28T05:53:33;1.90;49.93
64937;SHT30;51452;47.698;19.050;2023-02-28T05:55:59;1.89;50.42
64937;SHT30;51452;47.698;19.050;2023-02-28T05:58:25;2.09;50.25
64937;SHT30;51452;47.698;19.050;2023-02-28T06:00:54;2.20;49.96
64937;SHT30;51452;47.698;19.050;2023-02-28T06:03:19;2.27;50.69
64937;SHT30;51452;47.698;19.050;2023-02-28T06:05:46;2.33;50.48
64937;SHT30;51452;47.698;19.050;2023-02-28T06:08:11;2.35;50.11
64937;SHT30;51452;47.698;19.050;2023-02-28T06:10:37;2.40;50.66
64937;SHT30;51452;47.698;19.050;2023-02-28T06:13:03;2.47;50.65
64937;SHT30;51452;47.698;19.050;2023-02-28T06:15:29;2.51;50.90
64937;SHT30;51452;47.698;19.050;2023-02-28T06:17:55;2.66;51.01
64937;SHT30;51452;47.698;19.050;2023-02-28T06:20:26;2.69;50.89
64937;SHT30;51452;47.698;19.050;2023-02-28T06:22:58;2.69;51.25
64937;SHT30;51452;47.698;19.050;2023-02-28T06:25:27;2.65;49.48
64937;SHT30;51452;47.698;19.050;2023-02-28T06:27:54;2.74;50.53
64937;SHT30;51452;47.698;19.050;2023-02-28T06:30:19;2.78;50.49
64937;SHT30;51452;47.698;19.050;2023-02-28T06:32:49;2.85;50.46
64937;SHT30;51452;47.698;19.050;2023-02-28T06:35:14;2.86;50.28
64937;SHT30;51452;47.698;19.050;2023-02-28T06:37:40;2.82;50.37
64937;SHT30;51452;47.698;19.050;2023-02-28T06:40:05;2.84;50.41
64937;SHT30;51452;47.698;19.050;2023-02-28T06:42:32;2.92;50.34
64937;SHT30;51452;47.698;19.050;2023-02-28T06:44:57;3.00;49.84
64937;SHT30;51452;47.698;19.050;2023-02-28T06:47:23;2.85;49.08
64937;SHT30;51452;47.698;19.050;2023-02-28T06:49:49;2.92;49.54
64937;SHT30;51452;47.698;19.050;2023-02-28T06:52:16;2.96;48.46
64937;SHT30;51452;47.698;19.050;2023-02-28T06:54:41;2.91;48.67
64937;SHT30;51452;47.698;19.050;2023-02-28T06:57:07;2.95;48.79
64937;SHT30;51452;47.698;19.050;2023-02-28T06:59:33;3.12;48.15
64937;SHT30;51452;47.698;19.050;2023-02-28T07:01:58;3.23;48.24
64937;SHT30;51452;47.698;19.050;2023-02-28T07:04:23;3.31;48.42
64937;SHT30;51452;47.698;19.050;2023-02-28T07:06:49;3.41;48.79
64937;SHT30;51452;47.698;19.050;2023-02-28T07:09:15;3.47;49.29
64937;SHT30;51452;47.698;19.050;2023-02-28T07:11:41;3.50;48.96
64937;SHT30;51452;47.698;19.050;2023-02-28T07:14:08;3.60;48.84
64937;SHT30;51452;47.698;19.050;2023-02-28T07:16:33;3.77;47.89
64937;SHT30;51452;47.698;19.050;2023-02-28T07:18:59;3.77;47.89
64937;SHT30;51452;47.698;19.050;2023-02-28T07:21:25;3.78;48.20
64937;SHT30;51452;47.698;19.050;2023-02-28T07:23:50;3.75;47.97
64937;SHT30;51452;47.698;19.050;2023-02-28T07:26:18;3.78;48.44
64937;SHT30;51452;47.698;19.050;2023-02-28T07:28:45;3.87;47.54
64937;SHT30;51452;47.698;19.050;2023-02-28T07:31:12;3.94;47.19
64937;SHT30;51452;47.698;19.050;2023-02-28T07:33:42;3.92;46.94
64937;SHT30;51452;47.698;19.050;2023-02-28T07:36:10;3.84;48.24
64937;SHT30;51452;47.698;19.050;2023-02-28T07:38:41;3.97;48.10
64937;SHT30;51452;47.698;19.050;2023-02-28T07:41:07;3.94;47.81
64937;SHT30;51452;47.698;19.050;2023-02-28T07:43:34;3.88;46.29
64937;SHT30;51452;47.698;19.050;2023-02-28T07:46:10;3.98;45.86
64937;SHT30;51452;47.698;19.050;2023-02-28T07:48:36;4.02;46.09
64937;SHT30;51452;47.698;19.050;2023-02-28T07:51:01;3.91;47.63
64937;SHT30;51452;47.698;19.050;2023-02-28T07:53:27;4.06;48.12
64937;SHT30;51452;47.698;19.050;2023-02-28T07:55:57;4.19;47.73
64937;SHT30;51452;47.698;19.050;2023-02-28T07:58:24;4.26;46.73
64937;SHT30;51452;47.698;19.050;2023-02-28T08:00:50;4.46;45.98
64937;SHT30;51452;47.698;19.050;2023-02-28T08:03:17;4.43;46.17
64937;SHT30;51452;47.698;19.050;2023-02-28T08:05:42;4.45;44.92
64937;SHT30;51452;47.698;19.050;2023-02-28T08:08:08;4.46;44.99
64937;SHT30;51452;47.698;19.050;2023-02-28T08:10:34;4.32;44.39
64937;SHT30;51452;47.698;19.050;2023-02-28T08:12:59;4.18;46.39
64937;SHT30;51452;47.698;19.050;2023-02-28T08:15:25;4.32;46.42
64937;SHT30;51452;47.698;19.050;2023-02-28T08:17:50;4.40;46.16
64937;SHT30;51452;47.698;19.050;2023-02-28T08:20:16;4.43;45.72
64937;SHT30;51452;47.698;19.050;2023-02-28T08:22:42;4.50;44.57
64937;SHT30;51452;47.698;19.050;2023-02-28T08:25:08;4.63;45.71
64937;SHT30;51452;47.698;19.050;2023-02-28T08:27:33;4.76;45.14
64937;SHT30;51452;47.698;19.050;2023-02-28T08:29:59;4.87;45.64
64937;SHT30;51452;47.698;19.050;2023-02-28T08:32:25;4.84;45.77
64937;SHT30;51452;47.698;19.050;2023-02-28T08:34:50;4.81;46.23
64937;SHT30;51452;47.698;19.050;2023-02-28T08:37:16;4.74;44.94
64937;SHT30;51452;47.698;19.050;2023-02-28T08:39:41;4.60;45.08
64937;SHT30;51452;47.698;19.050;2023-02-28T08:42:07;4.46;45.28
64937;SHT30;51452;47.698;19.050;2023-02-28T08:44:32;4.73;45.38
64937;SHT30;51452;47.698;19.050;2023-02-28T08:46:58;4.84;45.61
64937;SHT30;51452;47.698;19.050;2023-02-28T08:49:23;4.90;43.36
64937;SHT30;51452;47.698;19.050;2023-02-28T08:51:48;4.98;43.79
64937;SHT30;51452;47.698;19.050;2023-02-28T08:54:14;5.02;44.75
64937;SHT30;51452;47.698;19.050;2023-02-28T08:56:46;5.05;43.75
64937;SHT30;51452;47.698;19.050;2023-02-28T08:59:14;5.21;44.11
64937;SHT30;51452;47.698;19.050;2023-02-28T09:01:40;5.14;44.00
64937;SHT30;51452;47.698;19.050;2023-02-28T09:04:06;4.91;44.03
64937;SHT30;51452;47.698;19.050;2023-02-28T09:06:34;4.83;45.21
64937;SHT30;51452;47.698;19.050;2023-02-28T09:08:59;4.70;46.11
64937;SHT30;51452;47.698;19.050;2023-02-28T09:11:27;4.67;46.49
64937;SHT30;51452;47.698;19.050;2023-02-28T09:13:52;4.63;45.67
64937;SHT30;51452;47.698;19.050;2023-02-28T09:16:18;4.73;45.79
64937;SHT30;51452;47.698;19.050;2023-02-28T09:18:44;4.66;46.63
64937;SHT30;51452;47.698;19.050;2023-02-28T09:21:12;4.57;46.06
64937;SHT30;51452;47.698;19.050;2023-02-28T09:23:42;4.43;46.57
64937;SHT30;51452;47.698;19.050;2023-02-28T09:26:11;4.36;46.92
64937;SHT30;51452;47.698;19.050;2023-02-28T09:28:37;4.49;46.88
64937;SHT30;51452;47.698;19.050;2023-02-28T09:31:03;4.47;46.74
64937;SHT30;51452;47.698;19.050;2023-02-28T09:33:30;4.69;47.86
64937;SHT30;51452;47.698;19.050;2023-02-28T09:36:00;4.70;46.45
64937;SHT30;51452;47.698;19.050;2023-02-28T09:38:26;4.63;46.03
64937;SHT30;51452;47.698;19.050;2023-02-28T09:40:56;4.70;46.89
64937;SHT30;51452;47.698;19.050;2023-02-28T09:43:24;4.84;46.94
64937;SHT30;51452;47.698;19.050;2023-02-28T09:46:05;4.91;45.53
64937;SHT30;51452;47.698;19.050;2023-02-28T09:48:39;5.02;46.23
64937;SHT30;51452;47.698;19.050;2023-02-28T09:54:00;5.17;44.60
64937;SHT30;51452;47.698;19.050;2023-02-28T09:56:33;5.24;43.08
64937;SHT30;51452;47.698;19.050;2023-02-28T10:04:35;5.31;44.05
64937;SHT30;51452;47.698;19.050;2023-02-28T10:07:10;5.27;44.61
64937;SHT30;51452;47.698;19.050;2023-02-28T10:09:45;5.40;42.72
64937;SHT30;51452;47.698;19.050;2023-02-28T10:12:12;5.29;43.02
64937;SHT30;51452;47.698;19.050;2023-02-28T10:14:42;5.24;43.15
64937;SHT30;51452;47.698;19.050;2023-02-28T10:17:26;5.43;43.44
64937;SHT30;51452;47.698;19.050;2023-02-28T10:20:01;5.59;43.96
64937;SHT30;51452;47.698;19.050;2023-02-28T10:22:34;5.53;44.90
64937;SHT30;51452;47.698;19.050;2023-02-28T10:25:15;5.53;43.88
64937;SHT30;51452;47.698;19.050;2023-02-28T10:27:41;5.70;44.83
64937;SHT30;51452;47.698;19.050;2023-02-28T10:30:10;5.56;45.17
64937;SHT30;51452;47.698;19.050;2023-02-28T10:32:38;5.67;45.10
64937;SHT30;51452;47.698;19.050;2023-02-28T10:37:54;5.70;43.62
64937;SHT30;51452;47.698;19.050;2023-02-28T10:43:02;5.66;44.50
64937;SHT30;51452;47.698;19.050;2023-02-28T10:45:29;5.73;46.33
64937;SHT30;51452;47.698;19.050;2023-02-28T10:47:59;5.91;45.39
64937;SHT30;51452;47.698;19.050;2023-02-28T10:50:30;6.06;45.79
64937;SHT30;51452;47.698;19.050;2023-02-28T10:55:36;5.94;45.49
64937;SHT30;51452;47.698;19.050;2023-02-28T10:58:01;6.22;45.08
64937;SHT30;51452;47.698;19.050;2023-02-28T11:00:33;6.40;44.42
64937;SHT30;51452;47.698;19.050;2023-02-28T11:02:59;6.64;44.85
64937;SHT30;51452;47.698;19.050;2023-02-28T11:08:04;6.34;44.16
64937;SHT30;51452;47.698;19.050;2023-02-28T11:10:32;6.45;46.95
64937;SHT30;51452;47.698;19.050;2023-02-28T11:13:00;6.34;47.76
64937;SHT30;51452;47.698;19.050;2023-02-28T11:15:35;6.14;47.50
64937;SHT30;51452;47.698;19.050;2023-02-28T11:20:31;6.14;47.85
64937;SHT30;51452;47.698;19.050;2023-02-28T11:22:58;6.30;46.68
64937;SHT30;51452;47.698;19.050;2023-02-28T11:25:30;6.38;46.59
64937;SHT30;51452;47.698;19.050;2023-02-28T11:28:05;6.45;48.30
64937;SHT30;51452;47.698;19.050;2023-02-28T11:30:40;6.41;46.72
64937;SHT30;51452;47.698;19.050;2023-02-28T11:36:30;6.28;46.05
64937;SHT30;51452;47.698;19.050;2023-02-28T11:39:00;6.34;46.44
64937;SHT30;51452;47.698;19.050;2023-02-28T11:46:53;6.58;47.48
64937;SHT30;51452;47.698;19.050;2023-02-28T11:49:37;6.61;47.73
64937;SHT30;51452;47.698;19.050;2023-02-28T11:52:33;6.62;48.38
64937;SHT30;51452;47.698;19.050;2023-02-28T12:03:28;6.90;45.86
64937;SHT30;51452;47.698;19.050;2023-02-28T12:28:16;6.96;46.81
64937;SHT30;51452;47.698;19.050;2023-02-28T12:31:06;6.96;45.34
64937;SHT30;51452;47.698;19.050;2023-02-28T12:33:38;7.06;45.44
64937;SHT30;51452;47.698;19.050;2023-02-28T12:36:11;7.04;46.05
64937;SHT30;51452;47.698;19.050;2023-02-28T12:38:45;6.95;45.80
64937;SHT30;51452;47.698;19.050;2023-02-28T12:41:33;6.96;46.43
64937;SHT30;51452;47.698;19.050;2023-02-28T12:44:32;7.03;45.98
64937;SHT30;51452;47.698;19.050;2023-02-28T12:47:04;7.20;45.82
64937;SHT30;51452;47.698;19.050;2023-02-28T12:49:34;7.37;46.00
64937;SHT30;51452;47.698;19.050;2023-02-28T12:52:03;7.57;45.81
64937;SHT30;51452;47.698;19.050;2023-02-28T12:55:00;7.16;45.53
64937;SHT30;51452;47.698;19.050;2023-02-28T13:00:13;7.30;45.98
64937;SHT30;51452;47.698;19.050;2023-02-28T13:05:32;7.24;44.88
64937;SHT30;51452;47.698;19.050;2023-02-28T13:10:47;7.17;45.84
64937;SHT30;51452;47.698;19.050;2023-02-28T13:13:21;7.02;46.11
64937;SHT30;51452;47.698;19.050;2023-02-28T13:15:58;6.90;45.88
64937;SHT30;51452;47.698;19.050;2023-02-28T13:18:33;6.79;46.30
64937;SHT30;51452;47.698;19.050;2023-02-28T13:21:01;6.92;46.63
64937;SHT30;51452;47.698;19.050;2023-02-28T13:23:39;7.06;45.68
64937;SHT30;51452;47.698;19.050;2023-02-28T13:26:05;7.16;45.37
64937;SHT30;51452;47.698;19.050;2023-02-28T13:31:15;7.60;46.45
64937;SHT30;51452;47.698;19.050;2023-02-28T13:34:13;7.70;45.69
64937;SHT30;51452;47.698;19.050;2023-02-28T13:36:39;7.81;45.86
64937;SHT30;51452;47.698;19.050;2023-02-28T13:56:04;7.27;44.92
64937;SHT30;51452;47.698;19.050;2023-02-28T14:06:26;7.26;46.35
64937;SHT30;51452;47.698;19.050;2023-02-28T14:08:54;7.37;45.91
64937;SHT30;51452;47.698;19.050;2023-02-28T14:11:29;7.26;46.56
64937;SHT30;51452;47.698;19.050;2023-02-28T14:13:56;7.41;46.45
64937;SHT30;51452;47.698;19.050;2023-02-28T14:16:24;7.47;45.96
64937;SHT30;51452;47.698;19.050;2023-02-28T14:19:03;7.44;45.39
64937;SHT30;51452;47.698;19.050;2023-02-28T14:21:35;7.47;46.48
64937;SHT30;51452;47.698;19.050;2023-02-28T14:24:23;7.47;45.53
64937;SHT30;51452;47.698;19.050;2023-02-28T14:27:15;7.55;46.15
64937;SHT30;51452;47.698;19.050;2023-02-28T14:37:41;7.19;46.64
64937;SHT30;51452;47.698;19.050;2023-02-28T14:40:21;6.93;46.88
64937;SHT30;51452;47.698;19.050;2023-02-28T14:43:02;6.95;47.12
64937;SHT30;51452;47.698;19.050;2023-02-28T14:45:30;6.92;47.28
64937;SHT30;51452;47.698;19.050;2023-02-28T14:47:57;7.07;46.09
64937;SHT30;51452;47.698;19.050;2023-02-28T14:50:29;7.13;46.76
64937;SHT30;51452;47.698;19.050;2023-02-28T14:52:55;7.04;46.48
64937;SHT30;51452;47.698;19.050;2023-02-28T14:55:26;6.99;46.66
64937;SHT30;51452;47.698;19.050;2023-02-28T14:57:54;6.96;47.31
64937;SHT30;51452;47.698;19.050;2023-02-28T15:00:29;7.12;46.99
64937;SHT30;51452;47.698;19.050;2023-02-28T15:02:55;7.20;47.53
64937;SHT30;51452;47.698;19.050;2023-02-28T15:08:10;6.97;47.23
64937;SHT30;51452;47.698;19.050;2023-02-28T15:10:37;6.97;47.37
64937;SHT30;51452;47.698;19.050;2023-02-28T15:13:07;7.09;47.24
64937;SHT30;51452;47.698;19.050;2023-02-28T15:15:46;6.97;47.50
64937;SHT30;51452;47.698;19.050;2023-02-28T15:20:57;7.09;47.84
64937;SHT30;51452;47.698;19.050;2023-02-28T15:23:24;7.00;46.85
64937;SHT30;51452;47.698;19.050;2023-02-28T15:25:50;7.02;47.66
64937;SHT30;51452;47.698;19.050;2023-02-28T15:28:19;7.09;48.24
64937;SHT30;51452;47.698;19.050;2023-02-28T15:31:27;7.13;47.74
64937;SHT30;51452;47.698;19.050;2023-02-28T15:33:57;7.17;47.13
64937;SHT30;51452;47.698;19.050;2023-02-28T15:36:29;7.26;47.09
64937;SHT30;51452;47.698;19.050;2023-02-28T15:38:55;7.16;48.10
64937;SHT30;51452;47.698;19.050;2023-02-28T15:41:24;7.24;47.39
64937;SHT30;51452;47.698;19.050;2023-02-28T15:47:02;7.27;48.07
64937;SHT30;51452;47.698;19.050;2023-02-28T15:49:38;7.30;48.40
64937;SHT30;51452;47.698;19.050;2023-02-28T15:52:04;7.20;47.37
64937;SHT30;51452;47.698;19.050;2023-02-28T15:54:33;7.04;47.35
64937;SHT30;51452;47.698;19.050;2023-02-28T15:57:14;6.89;48.24
64937;SHT30;51452;47.698;19.050;2023-02-28T15:59:48;6.99;47.58
64937;SHT30;51452;47.698;19.050;2023-02-28T16:02:20;6.93;47.46
64937;SHT30;51452;47.698;19.050;2023-02-28T16:07:37;6.93;47.69
64937;SHT30;51452;47.698;19.050;2023-02-28T16:10:03;6.93;48.18
64937;SHT30;51452;47.698;19.050;2023-02-28T16:12:32;6.89;48.76
64937;SHT30;51452;47.698;19.050;2023-02-28T16:14:59;6.90;48.39
64937;SHT30;51452;47.698;19.050;2023-02-28T16:17:31;6.75;48.73
64937;SHT30;51452;47.698;19.050;2023-02-28T16:19:58;6.78;48.39
64937;SHT30;51452;47.698;19.050;2023-02-28T16:22:23;6.69;48.66
64937;SHT30;51452;47.698;19.050;2023-02-28T16:24:49;6.65;48.98
64937;SHT30;51452;47.698;19.050;2023-02-28T16:27:19;6.55;49.04
64937;SHT30;51452;47.698;19.050;2023-02-28T16:29:45;6.61;49.01
64937;SHT30;51452;47.698;19.050;2023-02-28T16:32:14;6.67;49.29
64937;SHT30;51452;47.698;19.050;2023-02-28T16:34:40;6.65;49.84
64937;SHT30;51452;47.698;19.050;2023-02-28T16:37:16;6.61;50.47
64937;SHT30;51452;47.698;19.050;2023-02-28T16:39:43;6.62;50.86
64937;SHT30;51452;47.698;19.050;2023-02-28T16:42:25;6.58;51.24
64937;SHT30;51452;47.698;19.050;2023-02-28T16:44:52;6.59;51.51
64937;SHT30;51452;47.698;19.050;2023-02-28T16:47:18;6.53;52.13
64937;SHT30;51452;47.698;19.050;2023-02-28T16:49:44;6.55;51.89
64937;SHT30;51452;47.698;19.050;2023-02-28T16:52:10;6.56;52.47
64937;SHT30;51452;47.698;19.050;2023-02-28T16:54:37;6.51;52.27
64937;SHT30;51452;47.698;19.050;2023-02-28T16:57:04;6.52;52.09
64937;SHT30;51452;47.698;19.050;2023-02-28T16:59:31;6.48;52.50
64937;SHT30;51452;47.698;19.050;2023-02-28T17:01:57;6.48;52.45
64937;SHT30;51452;47.698;19.050;2023-02-28T17:04:27;6.48;52.54
64937;SHT30;51452;47.698;19.050;2023-02-28T17:06:53;6.46;52.48
64937;SHT30;51452;47.698;19.050;2023-02-28T17:09:23;6.46;52.75
64937;SHT30;51452;47.698;19.050;2023-02-28T17:11:48;6.45;52.86
64937;SHT30;51452;47.698;19.050;2023-02-28T17:14:14;6.46;52.89
64937;SHT30;51452;47.698;19.050;2023-02-28T17:16:41;6.45;52.98
64937;SHT30;51452;47.698;19.050;2023-02-28T17:19:13;6.46;53.42
64937;SHT30;51452;47.698;19.050;2023-02-28T17:21:40;6.45;52.98
64937;SHT30;51452;47.698;19.050;2023-02-28T17:24:07;6.45;53.05
64937;SHT30;51452;47.698;19.050;2023-02-28T17:26:33;6.48;53.00
64937;SHT30;51452;47.698;19.050;2023-02-28T17:28:59;6.44;54.10
64937;SHT30;51452;47.698;19.050;2023-02-28T17:31:25;6.44;54.34
64937;SHT30;51452;47.698;19.050;2023-02-28T17:33:52;6.40;54.75
64937;SHT30;51452;47.698;19.050;2023-02-28T17:36:23;6.35;55.43
64937;SHT30;51452;47.698;19.050;2023-02-28T17:38:50;6.28;55.34
64937;SHT30;51452;47.698;19.050;2023-02-28T17:41:15;6.30;55.14
64937;SHT30;51452;47.698;19.050;2023-02-28T17:43:41;6.25;54.13
64937;SHT30;51452;47.698;19.050;2023-02-28T17:46:18;6.21;54.60
64937;SHT30;51452;47.698;19.050;2023-02-28T17:48:46;6.21;55.45
64937;SHT30;51452;47.698;19.050;2023-02-28T17:51:13;6.21;56.79
64937;SHT30;51452;47.698;19.050;2023-02-28T17:53:39;6.20;56.65
64937;SHT30;51452;47.698;19.050;2023-02-28T17:56:10;6.20;56.48
64937;SHT30;51452;47.698;19.050;2023-02-28T17:58:38;6.20;57.55
64937;SHT30;51452;47.698;19.050;2023-02-28T18:01:03;6.11;57.62
64937;SHT30;51452;47.698;19.050;2023-02-28T18:03:30;6.13;57.13
64937;SHT30;51452;47.698;19.050;2023-02-28T18:05:57;6.13;57.23
64937;SHT30;51452;47.698;19.050;2023-02-28T18:08:22;6.11;57.99
64937;SHT30;51452;47.698;19.050;2023-02-28T18:10:48;6.09;58.46
64937;SHT30;51452;47.698;19.050;2023-02-28T18:13:14;6.06;57.90
64937;SHT30;51452;47.698;19.050;2023-02-28T18:15:39;6.11;58.15
64937;SHT30;51452;47.698;19.050;2023-02-28T18:18:05;6.13;58.27